createdAt,value
2022-08-04T00:09:00.566Z,67.50
2022-08-04T00:19:17.746Z,68.00
2022-08-04T00:29:22.402Z,68.40
2022-08-04T00:39:25.035Z,69.00
2022-08-04T00:49:29.882Z,69.40
2022-08-04T00:59:56.122Z,70.20
2022-08-04T01:10:35.584Z,71.10
2022-08-04T01:20:49.450Z,71.90
2022-08-04T01:30:57.636Z,72.30
2022-08-04T01:41:06.183Z,72.80
2022-08-04T01:51:09.227Z,73.50
2022-08-04T02:01:12.928Z,73.90
2022-08-04T02:11:21.748Z,74.20
2022-08-04T02:21:26.095Z,74.40
2022-08-04T02:31:58.021Z,75.80
2022-08-04T02:41:59.986Z,75.50
2022-08-04T02:52:02.779Z,76.20
2022-08-04T03:02:04.540Z,76.70
2022-08-04T03:12:35.841Z,77.30
2022-08-04T03:23:11.734Z,77.70
2022-08-04T03:33:40.452Z,78.20
2022-08-04T03:44:07.195Z,78.50
2022-08-04T03:54:17.750Z,79.10
2022-08-04T04:04:33.359Z,78.90
2022-08-04T04:15:08.734Z,79.60
2022-08-04T04:25:42.348Z,80.00
2022-08-04T04:36:08.270Z,80.30
2022-08-04T04:46:27.053Z,80.40
2022-08-04T04:56:40.508Z,80.80
2022-08-04T05:06:54.330Z,81.00
2022-08-04T05:17:26.182Z,81.10
2022-08-04T05:27:41.558Z,81.30
2022-08-04T05:37:45.178Z,81.20
2022-08-04T05:47:47.667Z,81.00
2022-08-04T05:57:55.599Z,80.70
2022-08-04T06:08:12.709Z,79.30
2022-08-04T06:19:56.106Z,79.80
2022-08-04T06:28:42.607Z,79.00
2022-08-04T06:38:45.236Z,78.60
2022-08-04T06:48:48.035Z,77.20
2022-08-04T06:58:52.180Z,75.90
2022-08-04T07:08:56.373Z,74.80
2022-08-04T07:18:58.216Z,73.60
2022-08-04T07:29:12.328Z,72.30
2022-08-04T07:39:22.053Z,71.00
2022-08-04T07:49:54.660Z,69.60
2022-08-04T07:59:52.847Z,67.70
2022-08-04T08:09:54.571Z,66.30
2022-08-04T08:19:56.255Z,65.10
2022-08-04T08:29:58.451Z,63.90
2022-08-04T08:40:40.196Z,62.00
2022-08-04T08:50:53.331Z,61.00
2022-08-04T09:01:13.898Z,59.70
2022-08-04T09:11:20.726Z,58.60
2022-08-04T09:21:49.063Z,57.50
2022-08-04T09:32:11.919Z,56.50
2022-08-04T09:42:32.748Z,55.60
2022-08-04T09:52:44.781Z,54.00
2022-08-04T10:03:01.085Z,52.20
2022-08-04T10:13:21.630Z,50.10
2022-08-04T10:24:00.998Z,48.20
2022-08-04T10:34:13.993Z,46.50
2022-08-04T10:44:48.340Z,45.40
2022-08-04T10:55:13.179Z,44.80
2022-08-04T11:05:29.086Z,44.40
2022-08-04T11:15:38.869Z,44.20
2022-08-04T11:25:57.169Z,43.70
2022-08-04T11:36:21.632Z,43.20
2022-08-04T11:46:28.088Z,43.00
2022-08-04T11:56:36.582Z,42.50
2022-08-04T12:07:28.534Z,42.10
2022-08-04T12:17:33.633Z,41.70
2022-08-04T12:28:06.273Z,41.00
2022-08-04T12:38:12.157Z,41.50
2022-08-04T12:48:16.794Z,40.00
2022-08-04T12:58:41.893Z,38.90
2022-08-04T13:08:46.895Z,37.90
2022-08-04T13:18:50.807Z,37.80
2022-08-04T13:28:53.939Z,38.00
2022-08-04T13:38:58.689Z,38.20
2022-08-04T13:59:32.417Z,37.70
2022-08-04T14:09:35.086Z,37.60
2022-08-04T14:19:46.796Z,37.40
2022-08-04T14:29:49.660Z,37.20
2022-08-04T14:40:08.134Z,36.80
2022-08-04T14:50:13.486Z,36.90
2022-08-04T15:00:27.336Z,37.10
2022-08-04T15:10:29.246Z,35.60
2022-08-04T15:20:31.946Z,36.50
2022-08-04T15:30:34.323Z,37.40
2022-08-04T15:40:51.377Z,37.70
2022-08-04T15:50:55.990Z,38.40
2022-08-04T16:01:00.440Z,38.90
2022-08-04T16:11:02.189Z,38.60
2022-08-04T16:21:07.188Z,38.90
2022-08-04T16:31:13.213Z,38.80
2022-08-04T16:41:38.590Z,38.00
2022-08-04T16:51:40.306Z,37.60
2022-08-04T17:01:47.913Z,37.80
2022-08-04T17:11:49.623Z,37.80
2022-08-04T17:21:53.154Z,38.10
2022-08-04T17:31:55.007Z,38.20
2022-08-04T17:41:57.420Z,38.10
2022-08-04T17:52:06.092Z,38.30
2022-08-04T18:02:13.303Z,38.70
2022-08-04T18:12:22.553Z,38.70
2022-08-04T18:22:28.448Z,39.60
2022-08-04T18:32:33.689Z,40.50
2022-08-04T18:42:37.269Z,41.30
2022-08-04T18:52:45.286Z,42.80
2022-08-04T19:02:47.766Z,43.30
2022-08-04T19:12:49.478Z,44.00
2022-08-04T19:24:30.338Z,44.70
2022-08-04T19:33:14.049Z,45.40
2022-08-04T19:43:19.931Z,46.90
2022-08-04T19:53:37.585Z,47.40
2022-08-04T20:04:08.204Z,48.00
2022-08-04T20:14:02.345Z,48.60
2022-08-04T20:24:39.973Z,49.20
2022-08-04T20:34:26.171Z,49.50
2022-08-04T20:44:28.032Z,49.70
2022-08-04T20:54:29.930Z,49.90
2022-08-04T21:04:32.889Z,50.50
2022-08-04T21:14:36.042Z,51.80
2022-08-04T21:24:38.077Z,52.00
2022-08-04T21:34:41.708Z,52.90
2022-08-04T21:44:43.916Z,53.00
2022-08-04T21:54:46.526Z,53.70
2022-08-04T22:04:55.993Z,54.10
2022-08-04T22:14:59.777Z,54.70
2022-08-04T22:25:12.434Z,55.70
2022-08-04T22:35:35.506Z,56.40
2022-08-04T22:45:44.530Z,57.00
2022-08-04T22:56:07.075Z,57.80
2022-08-04T23:06:11.702Z,58.00
2022-08-04T23:16:13.899Z,58.40
2022-08-04T23:26:16.420Z,58.60
2022-08-04T23:36:18.344Z,58.90
2022-08-04T23:46:20.453Z,59.20
2022-08-04T23:56:22.522Z,59.20
